AirNav   Everest Fuels
 
 1031 users online  

0KS7 Mono Aircraft Airport
Cheney, Kansas, USA

GOING TO CHENEY?


FAA INFORMATION EFFECTIVE 21 MAY 2020

Location

FAA Identifier: 0KS7
Lat/Long: 37-42-00.6700N 097-53-13.9900W
37-42.011167N 097-53.233167W
37.7001861,-97.8872194
(estimated)
Elevation: 1510 ft. / 460 m (estimated)
Variation: 07E (1985)
From city: 10 miles NW of CHENEY, KS
Time zone: UTC -5 (UTC -6 during Standard Time)
Zip code: 67025

Airport Operations

Airport use: Private use. Permission required prior to landing
Activation date: 05/1991
Control tower: no
ARTCC: KANSAS CITY CENTER
FSS: WICHITA FLIGHT SERVICE STATION
Attendance: CONTINUOUS
Segmented circle: no

Airport Communications

WX AWOS-3 at 9K8 (11 nm W): 119.325 (620-532-1272)

Nearby radio navigation aids

VOR radial/distance  VOR name  Freq  Var
ICTr252/14.7WICHITA VORTAC113.8007E
HUTr169/17.9HUTCHINSON VOR/DME116.8004E
ANYr016/35.2ANTHONY VORTAC112.9007E

 
NDB name  Hdg/Dist  Freq  Var  ID
NEWTON227/36.428106EEWK . .-- -.-

Airport Services

Fuel available: MOGAS

Runway Information

Runway 18/36

Dimensions: 2000 x 75 ft. / 610 x 23 m
Surface: turf
RUNWAY 18  RUNWAY 36
Latitude: 37-42.175833N37-41.846333N
Longitude: 097-53.231167W097-53.234833W
Elevation: 1510.0 ft.1503.0 ft.
Traffic pattern: leftleft
Runway heading: 173 magnetic, 180 true353 magnetic, 360 true

Airport Ownership and Management from official FAA records

Ownership: Privately-owned
Owner: EDWARD & LEO SAURENMAN
RR 2 BOX 186A
CHENEY, KANSAS 67025
Phone 316-297-4411
Manager: EDWARD & LEO SAURENMAN
RR 2 BOX 186A
CHENEY, KANSAS 67025
Phone 316-297-4411

Additional Remarks

E11 PRVDD APCH MAINT FOR A 20:1 GLIDE SLOPE; MAINT TRANSITIONAL SURFACE FOR A 7:1 SLOPE.
FOR CD CTC WICHITA APCH AT 316-350-1520.

Instrument Procedures

There are no published instrument procedures at 0KS7.

Some nearby airports with instrument procedures:

9K8 - Kingman Airport - Clyde Cessna Field (11 nm W)
KICT - Wichita Dwight D Eisenhower National Airport (22 nm E)
KHUT - Hutchinson Regional Airport (22 nm N)
8K2 - Harper Municipal Airport (26 nm S)
KIAB - Mc Connell Air Force Base (30 nm E)
 
Loc | Ops | Rwys | IFR | FBO | Links
Com | Nav | Svcs | Stats | Notes
Area around 0KS7 (Mono Aircraft Airport)
 
Road maps at: MapQuest Bing Google
 
Aerial photo
No photo
 
Sectional chart

 
Airport distance calculator
Flying to Mono Aircraft Airport? Find the distance to fly.

From to 0KS7

Sunrise and sunset
Times for 28-May-2020
 Local
(UTC-5)
 Zulu
(UTC)
Morning civil twilight05:4310:43
Sunrise06:1411:14
Sunset20:4401:44
Evening civil twilight21:1502:15

Current date and time
Zulu (UTC)  29-May-2020 00:54:57
Local (UTC-5)  28-May-2020 19:54:57
 
METAR
KICT 
22nm E 
282353Z 01016G25KT 10SM FEW055 FEW120 FEW150 SCT180 BKN220 26/14 A3003 RMK AO2 SLP158 60000 T02610144 10278 20222 53012
KHUT 
22nm N 
282352Z 02007G19KT 10SM CLR 26/14 A3006 RMK AO2 SLP159 T02610139 10278 20256 53014
KIAB 
30nm E 
282156Z AUTO 35014G21KT 10SM BKN050 BKN075 27/15 A2999 RMK AO2 SLP147 T02690149 $
KBEC 
32nm E 
290035Z AUTO 36008KT 10SM CLR 25/15 A3005 RMK AO2 T02450149
KEWK 
36nm NE 
282356Z AUTO 36015G20KT 10SM CLR 24/16 A3005 RMK AO2 SLP165 T02390161 10256 20222 53013
K1K1 
37nm E 
290035Z AUTO 01008KT 10SM SCT050 24/15 A3005 RMK AO2 T02440152
K3AU 
38nm E 
290035Z AUTO 35007KT 10SM SCT050 SCT055 24/16 A3005 RMK AO2
KP28 
40nm SW 
282356Z AUTO 03011KT 26/13 A3005 RMK AO1 SLP165 T02560128 10289 20250 53009
KPTT 
41nm W 
290035Z AUTO 02010KT 10SM CLR 25/12 A3011 RMK AO2 T02540123
KLYO 
42nm NW 
290035Z AUTO 03009KT 10SM CLR 24/14 A3009 RMK AO2 T02450143
TAF
KICT 
22nm E 
281722Z 2818/2918 36015G22KT P6SM VCSH SCT025 OVC080 TEMPO 2818/2819 6SM -RA BKN025 FM290000 36012KT P6SM BKN200 FM290500 36007KT P6SM SKC FM291200 03008KT P6SM SKC
KHUT 
22nm N 
281722Z 2818/2918 36015G22KT P6SM BKN080 FM290000 36011KT P6SM SCT200 FM290500 36005KT P6SM SKC FM291200 04007KT P6SM SKC
NOTAMs
Click for the latest NOTAMs
NOTAMs are issued by the DoD/FAA and will open in a separate window not controlled by AirNav.

 

 
 

Would you like to see your business listed on this page?

 If your business provides an interesting product or service to pilots, flight crews, aircraft, or users of the Mono Aircraft Airport, you should consider listing it here.  To start the listing process, click on the button below
 
Add a business
 

Other Pages about Mono Aircraft Airport

Update a link
 
Copyright © AirNav, LLC. All rights reserved. Privacy Policy  Contact